Time;durP1;ratioP1;P1;durP2;ratioP2;P2;SDS_P1;SDS_P2;PMS_P1;PMS_P2;Temp;Humidity;BMP_temperature;BMP_pressure;BME280_temperature;BME280_humidity;BME280_pressure;Samples;Min_cycle;Max_cycle;Signal;HPM_P1;HPM_P2
2021/09/02 00:06:36;;;;;;;0.80;0.75;;;22.50;99.90;;;;;;20700130;22;20238;-71
2021/09/02 00:16:40;;;;;;;4.83;0.87;;;22.70;99.90;;;;;;20707986;28;20198;-70
2021/09/02 00:26:47;;;;;;;2.97;0.70;;;22.50;99.90;;;;;;20690605;28;20740;-72
2021/09/02 00:36:51;;;;;;;1.80;1.27;;;21.80;99.90;;;;;;20708205;28;20197;-71
2021/09/02 00:46:56;;;;;;;0.93;0.60;;;21.40;99.90;;;;;;20704106;28;20309;-71
2021/09/02 00:56:59;;;;;;;1.03;0.70;;;21.30;99.90;;;;;;20689805;28;20309;-70
2021/09/02 01:07:05;;;;;;;0.63;0.50;;;21.40;99.90;;;;;;20705848;28;20238;-72
2021/09/02 01:17:08;;;;;;;0.70;0.70;;;21.40;99.90;;;;;;20706506;28;20222;-71
2021/09/02 01:27:14;;;;;;;17.17;1.20;;;21.50;99.90;;;;;;20705589;28;20285;-71
2021/09/02 01:37:19;;;;;;;0.80;0.57;;;21.60;99.90;;;;;;20702724;28;20202;-71
2021/09/02 01:47:27;;;;;;;1.27;0.70;;;21.70;99.90;;;;;;20686043;28;20635;-70
2021/09/02 01:57:30;;;;;;;1.33;1.00;;;21.70;99.90;;;;;;20703381;28;20199;-71
2021/09/02 02:07:36;;;;;;;1.20;1.03;;;21.40;99.90;;;;;;20702545;28;21057;-70
2021/09/02 02:17:40;;;;;;;2.07;1.00;;;21.50;99.90;;;;;;20701269;28;20201;-71
2021/09/02 02:27:46;;;;;;;2.07;0.57;;;21.40;99.90;;;;;;20701083;28;20231;-71
2021/09/02 02:37:50;;;;;;;2.33;1.40;;;21.60;99.90;;;;;;20697774;28;20207;-72
2021/09/02 02:47:55;;;;;;;2.93;0.90;;;20.90;99.90;;;;;;20699750;28;20227;-71
2021/09/02 02:57:59;;;;;;;1.53;1.23;;;20.80;99.90;;;;;;20697702;28;20218;-72
2021/09/02 03:08:06;;;;;;;2.57;0.73;;;20.90;99.90;;;;;;20698370;28;20621;-72
2021/09/02 03:18:13;;;;;;;0.57;0.57;;;20.80;99.90;;;;;;20696620;28;20249;-73
2021/09/02 03:28:18;;;;;;;1.37;0.67;;;20.90;99.90;;;;;;20696034;28;20222;-73
2021/09/02 03:38:22;;;;;;;0.80;0.73;;;20.90;99.90;;;;;;20695797;28;20191;-72
2021/09/02 03:48:26;;;;;;;1.93;1.23;;;20.90;99.90;;;;;;20694311;28;20222;-74
2021/09/02 03:58:30;;;;;;;0.97;0.63;;;20.90;99.90;;;;;;20694196;28;20671;-71
2021/09/02 04:08:35;;;;;;;1.23;1.13;;;20.90;99.90;;;;;;20693786;28;20249;-71
2021/09/02 04:18:40;;;;;;;0.60;0.60;;;21.10;99.90;;;;;;20695159;28;20203;-71
2021/09/02 04:28:45;;;;;;;1.13;0.60;;;21.10;99.90;;;;;;20705756;28;20231;-71
2021/09/02 04:38:49;;;;;;;1.07;0.63;;;21.10;99.90;;;;;;20708127;28;20195;-71
2021/09/02 04:48:54;;;;;;;0.90;0.77;;;21.40;99.90;;;;;;20705133;28;20656;-72
2021/09/02 04:58:57;;;;;;;1.47;1.00;;;21.80;99.90;;;;;;20707913;28;20199;-70
2021/09/02 05:09:02;;;;;;;2.40;1.17;;;21.80;99.90;;;;;;20698189;28;20265;-70
2021/09/02 05:19:06;;;;;;;2.43;1.07;;;21.90;99.90;;;;;;20704906;28;20191;-72
2021/09/02 05:29:11;;;;;;;1.07;0.80;;;22.10;99.90;;;;;;20698787;28;20223;-71
2021/09/02 05:39:15;;;;;;;2.00;0.63;;;22.10;99.90;;;;;;20703860;28;20202;-71
2021/09/02 05:49:20;;;;;;;1.80;0.80;;;22.20;99.90;;;;;;20701891;28;20226;-73
2021/09/02 05:59:23;;;;;;;0.87;0.80;;;22.50;99.90;;;;;;20702498;28;20674;-75
2021/09/02 06:09:28;;;;;;;0.30;0.20;;;22.90;99.90;;;;;;20699797;28;21053;-73
2021/09/02 06:19:32;;;;;;;2.73;0.63;;;23.10;99.90;;;;;;20701415;28;20195;-72
2021/09/02 06:29:37;;;;;;;1.20;1.10;;;23.10;99.90;;;;;;20701304;28;20301;-71
2021/09/02 06:39:40;;;;;;;4.55;1.17;;;23.30;99.90;;;;;;20670192;28;20537;-77
2021/09/02 06:49:45;;;;;;;0.65;0.60;;;23.20;99.90;;;;;;20688600;28;20665;-70
2021/09/02 06:59:49;;;;;;;1.48;0.55;;;23.40;99.90;;;;;;20678004;28;20227;-73
2021/09/02 07:09:54;;;;;;;0.82;0.73;;;23.40;99.90;;;;;;20608370;28;20338;-70
2021/09/02 07:19:59;;;;;;;1.48;0.68;;;23.40;99.90;;;;;;20520668;28;20775;-72
2021/09/02 07:30:07;;;;;;;1.55;1.23;;;23.40;99.90;;;;;;20556803;28;20227;-72
2021/09/02 07:40:12;;;;;;;0.95;0.95;;;23.40;99.90;;;;;;20624017;28;20200;-73
2021/09/02 07:50:18;;;;;;;0.93;0.90;;;23.50;99.90;;;;;;20577895;28;20301;-72
2021/09/02 08:00:21;;;;;;;2.00;1.30;;;23.70;99.90;;;;;;20595113;28;20245;-70
2021/09/02 08:10:28;;;;;;;1.23;0.55;;;24.00;99.90;;;;;;20707984;28;20226;-71
2021/09/02 08:20:34;;;;;;;0.85;0.60;;;24.30;99.90;;;;;;20707664;28;20305;-72
2021/09/02 08:30:39;;;;;;;1.23;1.10;;;24.40;99.90;;;;;;20680274;28;20222;-72
2021/09/02 08:40:43;;;;;;;2.53;0.82;;;24.40;99.90;;;;;;20708881;28;20265;-72
2021/09/02 08:50:49;;;;;;;9.07;0.47;;;24.60;99.90;;;;;;20703271;28;20229;-72
2021/09/02 09:00:53;;;;;;;2.67;0.88;;;24.80;99.90;;;;;;20693102;28;20227;-71
2021/09/02 09:11:15;;;;;;;1.17;1.00;;;25.60;99.90;;;;;;20622797;28;20237;-68
2021/09/02 09:21:19;;;;;;;2.15;1.77;;;25.90;99.90;;;;;;20624186;28;20199;-71
2021/09/02 09:31:33;;;;;;;1.00;0.80;;;26.50;99.90;;;;;;20587731;28;20220;-69
2021/09/02 09:41:39;;;;;;;3.50;1.02;;;26.80;99.90;;;;;;20621149;28;20782;-72
2021/09/02 09:51:44;;;;;;;0.93;0.65;;;26.80;99.90;;;;;;20619025;28;20254;-71
2021/09/02 10:01:48;;;;;;;1.48;0.65;;;26.60;99.90;;;;;;20620534;28;20349;-71
2021/09/02 10:11:53;;;;;;;4.40;1.00;;;26.50;99.90;;;;;;20599127;28;20234;-73
2021/09/02 10:21:58;;;;;;;3.50;0.85;;;26.30;99.90;;;;;;20618047;28;20208;-69
2021/09/02 10:32:33;;;;;;;1.23;0.98;;;26.60;99.90;;;;;;20618398;28;20659;-70
2021/09/02 10:42:44;;;;;;;1.38;0.65;;;26.30;99.90;;;;;;20616880;28;20560;-70
2021/09/02 10:52:49;;;;;;;4.57;0.77;;;26.30;99.90;;;;;;20616297;28;20227;-69
2021/09/02 11:03:11;;;;;;;3.20;1.98;;;25.70;99.90;;;;;;20642494;28;20448;-70
2021/09/02 11:13:16;;;;;;;1.45;1.08;;;25.50;99.90;;;;;;20675568;28;20220;-69
2021/09/02 11:23:20;;;;;;;0.68;0.45;;;25.80;99.90;;;;;;20562483;28;20209;-71
2021/09/02 11:33:25;;;;;;;1.60;0.98;;;25.80;99.90;;;;;;20601258;28;20586;-67
2021/09/02 11:43:29;;;;;;;3.22;0.98;;;26.20;99.90;;;;;;20571533;28;20559;-69
2021/09/02 11:53:34;;;;;;;1.83;1.50;;;26.30;99.90;;;;;;20566190;28;20288;-69
2021/09/02 12:03:38;;;;;;;1.17;0.68;;;26.30;99.90;;;;;;20620146;28;20277;-69
2021/09/02 12:13:43;;;;;;;6.72;0.80;;;26.20;99.90;;;;;;20690357;28;20234;-69
2021/09/02 12:23:49;;;;;;;1.02;0.93;;;26.00;99.90;;;;;;20691580;28;20554;-71
2021/09/02 12:34:00;;;;;;;1.75;1.05;;;26.30;99.90;;;;;;20674022;28;21109;-71
2021/09/02 12:44:05;;;;;;;0.73;0.70;;;26.10;99.90;;;;;;20675866;28;20198;-71
2021/09/02 12:54:10;;;;;;;1.10;1.00;;;26.50;99.90;;;;;;20707157;28;20231;-69
2021/09/02 13:04:14;;;;;;;1.33;0.95;;;26.70;99.90;;;;;;20665562;28;20238;-71
2021/09/02 13:14:19;;;;;;;1.95;0.90;;;27.10;99.90;;;;;;20625148;28;20250;-70
2021/09/02 13:24:23;;;;;;;0.65;0.65;;;26.60;99.90;;;;;;20622652;28;20187;-69
2021/09/02 13:34:29;;;;;;;2.63;1.15;;;26.30;99.90;;;;;;20603040;28;20222;-69
2021/09/02 13:44:33;;;;;;;1.15;1.05;;;26.40;99.90;;;;;;20617336;28;20577;-69
2021/09/02 13:54:41;;;;;;;5.10;0.90;;;26.50;99.90;;;;;;20615163;28;20584;-72
2021/09/02 14:04:48;;;;;;;1.17;0.85;;;26.70;99.90;;;;;;20660994;28;20308;-68
2021/09/02 14:14:53;;;;;;;2.60;1.52;;;27.20;99.90;;;;;;20677112;28;20229;-69
2021/09/02 14:24:58;;;;;;;1.90;1.10;;;27.70;99.90;;;;;;20696146;28;20214;-69
2021/09/02 14:35:03;;;;;;;1.88;1.70;;;27.40;99.90;;;;;;20692035;28;20274;-70
2021/09/02 14:45:07;;;;;;;1.10;1.02;;;26.90;99.90;;;;;;20693520;28;20203;-69
2021/09/02 14:55:13;;;;;;;5.03;0.82;;;27.30;99.90;;;;;;20694616;28;20227;-69
2021/09/02 15:05:17;;;;;;;1.20;0.98;;;28.80;99.90;;;;;;20693378;28;20223;-69
2021/09/02 15:15:23;;;;;;;1.73;0.85;;;29.00;99.90;;;;;;20694387;28;20222;-70
2021/09/02 15:25:26;;;;;;;3.08;1.40;;;30.60;99.90;;;;;;20673610;28;20198;-68
2021/09/02 15:35:31;;;;;;;3.65;1.58;;;31.30;99.90;;;;;;20691835;28;20230;-69
2021/09/02 15:45:35;;;;;;;2.22;1.45;;;30.80;99.90;;;;;;20691184;28;20195;-70
2021/09/02 15:55:40;;;;;;;7.85;1.98;;;29.20;99.90;;;;;;20688942;28;20304;-70
2021/09/02 16:05:44;;;;;;;1.10;0.80;;;28.70;99.90;;;;;;20614957;28;20223;-69
2021/09/02 16:15:49;;;;;;;1.30;1.20;;;28.70;99.90;;;;;;20606259;28;21218;-71
2021/09/02 16:25:54;;;;;;;3.38;1.30;;;28.90;99.90;;;;;;20621878;28;20312;-72
2021/09/02 16:36:01;;;;;;;2.92;1.10;;;28.60;99.90;;;;;;20622396;28;20211;-69
2021/09/02 16:46:05;;;;;;;9.05;1.15;;;28.20;99.90;;;;;;20620804;28;20187;-69
2021/09/02 16:56:10;;;;;;;1.35;0.90;;;28.10;99.90;;;;;;20623405;28;20235;-74
2021/09/02 17:06:14;;;;;;;1.50;1.40;;;28.10;99.90;;;;;;20676956;28;20317;-70
2021/09/02 17:16:20;;;;;;;2.15;1.08;;;28.20;99.90;;;;;;20682452;28;20238;-70
2021/09/02 17:26:24;;;;;;;1.65;0.90;;;27.70;99.90;;;;;;20700421;28;20203;-69
2021/09/02 17:36:29;;;;;;;2.17;0.73;;;26.80;99.90;;;;;;20678927;28;20214;-69
2021/09/02 17:46:34;;;;;;;1.08;1.00;;;27.30;99.90;;;;;;20678895;28;20203;-70
2021/09/02 17:56:39;;;;;;;2.25;1.65;;;26.60;99.90;;;;;;20695905;28;20229;-72
2021/09/02 18:06:42;;;;;;;4.50;1.10;;;26.10;99.90;;;;;;20689758;28;20219;-69
2021/09/02 18:16:47;;;;;;;6.70;0.77;;;25.60;99.90;;;;;;20693098;28;20587;-69
2021/09/02 18:26:51;;;;;;;1.80;0.60;;;25.40;99.90;;;;;;20697490;28;20213;-71
2021/09/02 18:36:56;;;;;;;1.25;1.00;;;25.20;99.90;;;;;;20694027;28;20237;-71
2021/09/02 18:47:01;;;;;;;3.33;0.93;;;24.90;99.90;;;;;;20694944;28;20214;-70
2021/09/02 18:57:07;;;;;;;0.75;0.75;;;24.70;99.90;;;;;;20693536;28;20618;-71
2021/09/02 19:07:12;;;;;;;0.60;0.55;;;24.60;99.90;;;;;;20695715;28;20716;-73
2021/09/02 19:17:18;;;;;;;0.55;0.25;;;24.40;99.90;;;;;;20694879;28;20230;-70
2021/09/02 19:27:22;;;;;;;0.20;0.20;;;24.30;99.90;;;;;;20691259;28;20209;-71
2021/09/02 19:37:32;;;;;;;0.32;0.30;;;24.20;99.90;;;;;;20691815;28;21076;-71
2021/09/02 19:47:37;;;;;;;0.50;0.40;;;24.00;99.90;;;;;;20691093;28;20274;-68
2021/09/02 19:58:05;;;;;;;3.08;0.43;;;24.00;99.90;;;;;;20697840;28;20190;-71
2021/09/02 20:08:17;;;;;;;0.55;0.55;;;24.10;99.90;;;;;;20702514;28;20304;-71
2021/09/02 20:18:23;;;;;;;1.30;0.40;;;24.20;99.90;;;;;;20705340;28;20217;-70
2021/09/02 20:28:29;;;;;;;0.50;0.22;;;23.90;99.90;;;;;;20701500;28;20232;-72
2021/09/02 20:38:38;;;;;;;0.90;0.70;;;23.80;99.90;;;;;;20702837;28;20195;-70
2021/09/02 20:48:43;;;;;;;1.27;1.17;;;23.70;99.90;;;;;;20702690;28;20456;-70
2021/09/02 20:58:49;;;;;;;0.88;0.63;;;23.70;99.90;;;;;;20699445;28;20202;-72
2021/09/02 21:08:57;;;;;;;1.83;1.30;;;23.80;99.90;;;;;;20700789;28;20215;-68
2021/09/02 21:19:02;;;;;;;0.68;0.40;;;23.80;99.90;;;;;;20702746;28;20655;-70
2021/09/02 21:29:13;;;;;;;0.85;0.30;;;23.90;99.90;;;;;;20707896;28;20687;-70
2021/09/02 21:39:24;;;;;;;1.17;0.70;;;23.90;99.90;;;;;;20700766;28;20198;-71
2021/09/02 21:49:27;;;;;;;5.00;0.95;;;23.80;99.90;;;;;;20700451;28;20245;-70
2021/09/02 21:59:34;;;;;;;0.98;0.70;;;23.70;99.90;;;;;;20706967;28;20183;-70
2021/09/02 22:09:38;;;;;;;0.88;0.57;;;23.60;99.90;;;;;;20700241;28;20222;-70
2021/09/02 22:19:48;;;;;;;1.75;0.65;;;23.50;99.90;;;;;;20677656;28;20199;-70
2021/09/02 22:29:54;;;;;;;0.65;0.63;;;23.30;99.90;;;;;;20699699;28;20773;-69
2021/09/02 22:39:59;;;;;;;1.27;0.63;;;23.00;99.90;;;;;;20681836;28;20195;-70
2021/09/02 22:50:04;;;;;;;0.60;0.50;;;22.50;99.90;;;;;;20698440;28;20229;-71
2021/09/02 23:00:10;;;;;;;1.10;0.57;;;22.50;99.90;;;;;;20679199;28;20254;-71
2021/09/02 23:10:23;;;;;;;0.43;0.30;;;22.30;99.90;;;;;;20659840;28;20223;-72
2021/09/02 23:20:28;;;;;;;2.70;1.07;;;22.10;99.90;;;;;;20693713;28;20208;-71
2021/09/02 23:30:32;;;;;;;0.50;0.50;;;22.00;99.90;;;;;;20693644;28;20301;-72
2021/09/02 23:40:37;;;;;;;0.97;0.77;;;22.00;99.90;;;;;;20686666;28;20201;-70
2021/09/02 23:50:42;;;;;;;0.70;0.47;;;21.50;99.90;;;;;;20674073;28;20238;-70
